APRS [IN73CE], 0 Stunde(n), DL3EL [04:56:33, 0s].
EA1HWA 43.12.00N 005.47.40WIN73CE 1.397km N03:31:21ZMMDVM MMDVM HS Hat 433.4500/433.4500 CC1
EA1JBL 43.12.28N 005.47.42WIN73CE 1.930km N03:32:46ZMMDVM DVMega 435.3000/435.3000 CC1
EB1DGC 43.12.60N 005.45.59WIN73CF 3.586km 46°NE03:32:13ZMMDVM MMDVM HS Hat 433.4500/433.4500 CC1
EA1RCG 43.09.45N 005.49.78WIN73CD 4.534km 223°SW03:33:39ZGRUPO RADIO GALENA (GRG) 433.4500/433.4500 CC1
EA1IMW 43.14.36N 005.46.93WIN73CF 5.814km N03:33:33ZGRUPO RADIO GALENA (GRG) 433.4500/433.4500 CC1
ED1ZAD 43.07.90N 005.38.52WIN73ED 13.615km 117°ESE03:44:55ZED1ZAD-3 APRS Digi/Igate(3ED1ZAD-3)
EA1L 43.20.38N 005.51.13WIN73BI 17.633km 344°NNW03:35:33ZWind 206°/001kn, Böen bis 002kn, Temp 7.78c, Regen 0.0mm, letzte 24h 0.0mm, seit 0h 0.0mm, Baro 1020.2h, Hum: 97%(3EA1L-13)
ea1l@ure.es V=11.7V,T=??.?C(2EA1L)
EA1JBE 43.21.56N 005.50.46WIN73BI 19.534km 348°NNW03:51:51Zea1l@ure.es V=11.7V,T=??.?C(3EA1JBE-2)
EA1JAY 43.21.54N 005.51.43WIN73BI 19.793km 344°NNW03:55:11Z434.525MHz Nodo TETRA DMO(3EA1JAY-4)
iGATE LoRa en pruebas(2EA1JAY-10)
33D00 43.21.63N 005.51.13WIN73BI 19.847km 346°NNW03:02:05Z33-D-00 Protección Civil REMER / Delegación del Gobierno en Asturias
EB1JAJ 43.21.72N 005.51.82WIN73BI 20.256km 343°NNW03:33:29ZMMDVM MMDVM HS Dual Hat 438.0250/431.0250 CC1
EA1YR 43.22.09N 005.51.86WIN73BI 20.950km 344°NNW03:33:29ZMMDVM DV ADER 434.3500/434.3500 CC1
LEHU 43.22.63N 005.49.57WIN73CJ 21.272km 352°N03:30:07ZHelipuerto del HUCA: LEAS 040300Z VRB01KT CAVOK 09/06 Q1022=
EA1FLQ 43.22.00N 005.36.35WIN73EI 24.954km 37°NE03:32:56ZMMDVM DVMega 439.9750/439.9750 CC5
EA1ABW 43.24.77N 005.47.77WIN73CJ 25.073km 359°N03:31:38ZMMDVM MMDVM HS Hat 439.8250/439.8250 CC1
LEMR 43.25.83N 005.49.60WIN73CK 27.165km 354°N03:30:08ZAerodromo de la Morgal: LEAS 040300Z VRB01KT CAVOK 09/06 Q1022=
EA1IPU 43.26.21N 005.46.62WIN73CK 27.764km N03:32:12ZMMDVM MMDVM HS Hat 439.8000/439.8000 CC1
LEGM 43.26.15N 005.49.84WIN73CK 27.807km 354°N03:30:07ZHelipuerto de La Morgal: LEAS 040300Z VRB01KT CAVOK 09/06 Q1022=
ED1ZAS 43.27.52N 005.40.17WIN73DL 31.740km 18°NNE03:34:32ZRD985 438.2250/430.6250 CC1
ED1ZAE 43.27.99N 005.40.54WIN73DL 32.403km 17°NNE03:48:46Z2m Voice 145.5875 -0.600 Mhz(3ED1ZAE-C)
400 M. PICO SAN MARTIN (GIJON) 13.5V,17.5C(2ED1ZAE-3)
ED1ZAY 43.29.47N 005.56.54WIN73AL 35.913km 340°NNW03:34:38ZRD625 438.3000/430.7000 CC1
EB1GEM 43.30.00N 005.36.07WIN73EM 38.022km 24°NNE03:53:46ZWX3in1Plus2.0 U=13.3V,T=??.?C/??.?F(3EB1GEM-3)
EA1FFA 43.31.53N 005.40.64WIN73DM 38.716km 14°NNE03:31:53ZMMDVM MMDVM HS Hat 438.8000/438.8000 CC1
EA1HJA 43.28.10N 005.30.45WIN73FL 38.770km 36°NE03:50:13ZEA1HJA@URE.ES
EA1HJA@URE.ES(2EA1HJA-2)
EA1DZR 43.31.48N 005.40.00WIN73EM 38.824km 15°NNE03:34:08ZMMDVM DVMega 431.1000/431.1000 CC1
EB1TK 43.32.33N 005.41.49WIN73DM 39.888km 12°NNE03:34:27ZWind 224°/004kn, Böen bis 005kn, Temp 8.33c, Regen 0.0mm, letzte 24h 0.0mm, seit 0h 0.0mm, Baro 1025.5h, Hum: 90%(3EB1TK-13)
Igate Direwolf en pruebas(2EB1TK-5)
EA1AHA 43.32.72N 005.54.38WIN73BN 40.866km 347°NNW03:56:25ZWind 000°/000kn, Böen bis 000kn, Temp -17.78c, Regen 0.0mm, letzte 24h 0.0mm, seit 0h 0.0mm, Baro 1023.4h, Hum: 0%(3EA1AHA-13)
LEEL 43.32.98N 005.41.71WIN73DN 41.011km 11°N03:30:08ZHelipuerto de El Musel: LEAS 040300Z VRB01KT CAVOK 09/06 Q1022=
EA1IZV 43.33.25N 005.55.92WIN73AN 42.316km 344°NNW03:45:05ZEn proceso...
EA1FHR 43.28.72N 005.26.41WIN73GL 43.073km 41°NE03:30:14ZMMDVM MMDVM HS Hat 439.1500/439.1500 CC1
EA1HFV 43.29.09N 005.26.06WIN73GL 43.912km 41°NE03:32:19ZMMDVM DVMega 430.4250/430.4250 CC1
EA1DHE 43.33.98N 005.58.57WIN73AN 44.695km 341°NNW03:34:11ZMMDVM DV ADER 434.3500/434.3500 CC1

aprs.pl 5.0.011w DL3EL © 2006-2021 [146303]